Time;durP1;ratioP1;P1;durP2;ratioP2;P2;SDS_P1;SDS_P2;PMS_P1;PMS_P2;Temp;Humidity;BMP_temperature;BMP_pressure;BME280_temperature;BME280_humidity;BME280_pressure;Samples;Min_cycle;Max_cycle;Signal;HPM_P1;HPM_P2
2023/08/03 00:02:34;;;;;;;13.60;2.00;;;;;;;18.63;100.00;98055.16;12185986;19;20018;-80
2023/08/03 00:06:36;;;;;;;9.50;1.50;;;;;;;18.64;100.00;98053.16;12204171;19;20030;-82
2023/08/03 00:10:38;;;;;;;7.27;1.40;;;;;;;18.66;100.00;98062.00;12205750;19;20013;-83
2023/08/03 00:14:39;;;;;;;5.38;1.75;;;;;;;18.71;100.00;98060.97;12188403;19;20014;-82
2023/08/03 00:18:41;;;;;;;5.05;1.38;;;;;;;18.74;100.00;98063.09;12211607;19;20090;-82
2023/08/03 00:22:46;;;;;;;6.20;1.50;;;;;;;18.75;100.00;98059.97;12211505;19;20537;-81
2023/08/03 00:26:48;;;;;;;5.32;1.30;;;;;;;18.75;100.00;98059.97;12190192;19;20014;-81
2023/08/03 00:30:50;;;;;;;6.95;1.50;;;;;;;18.70;100.00;98067.72;12211616;19;20058;-81
2023/08/03 00:34:53;;;;;;;7.60;1.23;;;;;;;18.67;100.00;98070.03;12211175;19;20006;-81
2023/08/03 00:38:56;;;;;;;7.95;1.40;;;;;;;18.76;100.00;98061.59;12190078;19;20007;-82
2023/08/03 00:42:58;;;;;;;8.80;1.48;;;;;;;18.78;100.00;98064.03;12210641;19;20014;-79
2023/08/03 00:47:00;;;;;;;7.47;1.43;;;;;;;18.77;100.00;98073.56;12213524;19;20019;-82
2023/08/03 00:51:02;;;;;;;5.20;1.37;;;;;;;18.71;100.00;98074.91;12191658;19;20021;-83
2023/08/03 00:55:04;;;;;;;5.07;2.72;;;;;;;18.73;100.00;98084.59;12204111;19;21223;-82
2023/08/03 00:59:10;;;;;;;4.68;1.48;;;;;;;18.66;99.13;98084.31;12210705;19;20011;-83
2023/08/03 01:03:13;;;;;;;3.88;1.20;;;;;;;18.77;100.00;98087.50;12190167;19;20034;-81
2023/08/03 01:07:16;;;;;;;5.17;1.20;;;;;;;18.73;99.78;98103.28;12209869;19;20039;-80
2023/08/03 01:11:17;;;;;;;8.95;1.65;;;;;;;18.76;100.00;98094.25;12189267;19;20006;-82
2023/08/03 01:15:19;;;;;;;6.78;1.10;;;;;;;18.78;100.00;98098.34;12205398;19;20502;-82
2023/08/03 01:19:22;;;;;;;6.75;1.98;;;;;;;18.75;100.00;98095.41;12208835;19;20003;-82
2023/08/03 01:23:24;;;;;;;4.73;1.90;;;;;;;18.77;100.00;98107.03;12188540;19;20018;-81
2023/08/03 01:27:25;;;;;;;10.07;1.17;;;;;;;18.72;99.98;98116.41;12211678;19;20337;-83
2023/08/03 01:31:27;;;;;;;7.15;1.08;;;;;;;18.69;100.00;98117.13;12209629;19;20019;-80
2023/08/03 01:35:30;;;;;;;;;;;;;;;18.62;100.00;98109.31;12183983;19;20033;-81
2023/08/03 01:39:31;;;;;;;7.50;1.30;;;;;;;18.60;100.00;98113.59;12203407;19;19914;-79
2023/08/03 01:43:33;;;;;;;7.32;1.50;;;;;;;18.52;100.00;98117.28;12204436;19;20043;-82
2023/08/03 01:47:35;;;;;;;7.93;1.08;;;;;;;18.48;100.00;98110.78;12170542;19;20030;-83
2023/08/03 01:51:40;;;;;;;6.38;1.17;;;;;;;18.51;100.00;98121.25;12200590;19;20010;-81
2023/08/03 01:55:45;;;;;;;5.78;1.00;;;;;;;18.44;100.00;98122.63;12198902;19;20016;-80
2023/08/03 01:59:47;;;;;;;3.83;1.02;;;;;;;18.40;100.00;98116.09;12175951;19;20026;-81
2023/08/03 02:03:49;;;;;;;3.07;0.90;;;;;;;18.39;100.00;98124.81;12201993;19;20421;-80
2023/08/03 02:07:53;;;;;;;5.53;1.08;;;;;;;18.25;100.00;98135.44;12202799;19;20015;-81
2023/08/03 02:11:56;;;;;;;6.00;1.13;;;;;;;18.21;100.00;98136.13;12186854;19;20014;-81
2023/08/03 02:16:02;;;;;;;4.22;1.30;;;;;;;18.15;100.00;98151.41;12202197;19;20370;-84
2023/08/03 02:20:23;;;;;;;5.85;1.20;;;;;;;18.08;100.00;98150.31;12179213;19;20006;-82
2023/08/03 02:24:25;;;;;;;5.85;1.05;;;;;;;18.01;100.00;98156.44;12204283;19;20509;-81
2023/08/03 02:28:27;;;;;;;7.15;1.00;;;;;;;17.92;100.00;98145.34;12205858;19;20657;-83
2023/08/03 02:32:29;;;;;;;7.03;1.10;;;;;;;17.84;100.00;98150.97;12181615;19;21258;-82
2023/08/03 02:36:31;;;;;;;3.28;0.88;;;;;;;17.70;100.00;98152.03;12202374;19;20022;-80
2023/08/03 02:40:39;;;;;;;6.38;1.00;;;;;;;17.65;100.00;98152.22;12203648;19;20022;-82
2023/08/03 02:44:41;;;;;;;3.90;0.82;;;;;;;17.62;100.00;98155.69;12181602;19;20086;-80
2023/08/03 02:48:46;;;;;;;7.53;0.98;;;;;;;17.62;100.00;98163.22;12207359;19;20015;-82
2023/08/03 02:52:49;;;;;;;;;;;;;;;17.51;100.00;98168.34;12201535;19;20037;-82
2023/08/03 02:56:52;;;;;;;9.65;1.17;;;;;;;17.52;100.00;98192.28;12178450;19;19907;-81
2023/08/03 03:00:54;;;;;;;5.95;0.82;;;;;;;17.37;100.00;98188.09;12198935;19;20035;-81
2023/08/03 03:04:57;;;;;;;5.32;0.93;;;;;;;17.38;100.00;98197.25;12200886;19;20031;-79
2023/08/03 03:08:59;;;;;;;4.07;0.93;;;;;;;17.26;100.00;98193.19;12187493;19;20031;-81
2023/08/03 03:13:02;;;;;;;4.90;1.13;;;;;;;17.19;100.00;98206.00;12215893;19;20031;-82
2023/08/03 03:17:04;;;;;;;6.72;1.10;;;;;;;17.20;100.00;98193.72;12218984;19;20022;-81
2023/08/03 03:21:07;;;;;;;3.90;0.77;;;;;;;17.12;100.00;98206.50;12193248;19;20011;-80
2023/08/03 03:25:10;;;;;;;5.85;1.27;;;;;;;17.05;100.00;98206.22;12214726;19;20006;-81
2023/08/03 03:29:11;;;;;;;3.50;0.90;;;;;;;17.07;100.00;98212.25;12242942;19;20033;-79
2023/08/03 03:33:14;;;;;;;5.53;0.85;;;;;;;17.06;100.00;98208.66;12219747;19;20013;-81
2023/08/03 03:37:23;;;;;;;9.32;1.55;;;;;;;17.05;100.00;98234.84;12233536;19;20018;-82
2023/08/03 03:41:25;;;;;;;3.73;0.70;;;;;;;17.07;100.00;98223.38;12211563;19;20014;-80
2023/08/03 03:45:29;;;;;;;4.40;1.05;;;;;;;17.04;100.00;98226.81;12233509;19;20010;-79
2023/08/03 03:49:31;;;;;;;5.13;1.33;;;;;;;16.97;100.00;98227.34;12222038;19;20006;-83
2023/08/03 03:53:36;;;;;;;4.55;1.00;;;;;;;17.03;100.00;98220.44;12196287;19;20029;-80
2023/08/03 03:57:44;;;;;;;5.03;0.80;;;;;;;17.02;100.00;98229.13;12214715;19;20018;-82
2023/08/03 04:01:46;;;;;;;4.15;0.70;;;;;;;16.93;100.00;98236.69;12215575;19;20007;-82
2023/08/03 04:05:48;;;;;;;5.77;1.63;;;;;;;16.90;100.00;98245.69;12192938;19;20010;-83
2023/08/03 04:09:50;;;;;;;5.27;1.27;;;;;;;16.91;100.00;98244.53;12215114;19;20010;-82
2023/08/03 04:13:52;;;;;;;5.72;1.55;;;;;;;16.92;100.00;98252.53;12209858;19;20015;-81
2023/08/03 04:17:57;;;;;;;4.72;0.90;;;;;;;16.99;100.00;98252.88;12190435;19;20002;-82
2023/08/03 04:22:06;;;;;;;5.43;0.98;;;;;;;17.02;100.00;98254.19;12210595;19;20017;-80
2023/08/03 04:26:10;;;;;;;2.60;0.90;;;;;;;17.02;100.00;98251.41;12205937;19;20026;-80
2023/08/03 04:30:13;;;;;;;4.30;1.10;;;;;;;17.02;100.00;98251.41;12188877;19;20027;-80
2023/08/03 04:34:16;;;;;;;4.82;0.88;;;;;;;17.06;100.00;98255.97;12210328;19;20010;-79
2023/08/03 04:38:18;;;;;;;;;;;;;;;17.11;100.00;98257.75;12185698;19;20019;-80
2023/08/03 04:42:26;;;;;;;5.43;1.08;;;;;;;17.22;100.00;98255.44;12212640;19;19910;-81
2023/08/03 04:46:28;;;;;;;4.60;1.27;;;;;;;17.24;100.00;98264.28;12217277;19;20010;-80
2023/08/03 04:50:30;;;;;;;4.60;1.38;;;;;;;17.27;100.00;98266.38;12234192;19;20018;-78
2023/08/03 04:54:32;;;;;;;6.30;0.90;;;;;;;17.19;100.00;98270.84;12228245;19;20015;-81
2023/08/03 04:58:34;;;;;;;4.63;0.93;;;;;;;17.21;100.00;98276.88;12221037;19;20018;-82
2023/08/03 05:02:37;;;;;;;4.55;0.90;;;;;;;17.15;100.00;98277.41;12228883;19;19998;-80
2023/08/03 05:06:39;;;;;;;4.43;1.10;;;;;;;17.18;100.00;98271.16;12251438;19;20111;-80
2023/08/03 05:10:41;;;;;;;2.60;0.73;;;;;;;17.20;100.00;98291.97;12252573;19;20041;-79
2023/08/03 05:14:43;;;;;;;5.75;1.08;;;;;;;17.12;100.00;98298.34;12214437;19;20010;-80
2023/08/03 05:18:45;;;;;;;4.15;0.95;;;;;;;17.06;100.00;98302.44;12243101;19;20013;-81
2023/08/03 05:22:47;;;;;;;3.00;1.33;;;;;;;16.91;100.00;98314.09;12219778;19;20050;-83
2023/08/03 05:26:49;;;;;;;6.60;1.43;;;;;;;16.63;100.00;98325.53;12188114;19;20011;-84
2023/08/03 05:30:51;;;;;;;2.75;0.80;;;;;;;16.45;100.00;98337.75;12219784;19;20239;-82
2023/08/03 05:34:53;;;;;;;3.70;0.90;;;;;;;16.36;100.00;98333.00;12213424;19;20019;-84
2023/08/03 05:38:55;;;;;;;3.67;1.40;;;;;;;16.36;100.00;98332.19;12194233;19;20014;-83
2023/08/03 05:42:57;;;;;;;4.10;1.25;;;;;;;16.31;100.00;98338.72;12219504;19;20014;-82
2023/08/03 05:46:59;;;;;;;4.57;1.70;;;;;;;16.38;100.00;98341.81;12210762;19;20007;-81
2023/08/03 05:51:00;;;;;;;8.43;1.27;;;;;;;16.46;100.00;98345.78;12191928;19;20011;-83
2023/08/03 05:55:03;;;;;;;5.28;1.35;;;;;;;16.57;100.00;98347.09;12215780;19;20420;-83
2023/08/03 05:59:17;;;;;;;7.35;1.25;;;;;;;16.67;100.00;98350.72;12208398;19;20373;-82
2023/08/03 06:03:19;;;;;;;6.38;1.38;;;;;;;16.76;100.00;98344.03;12184781;19;20010;-80
2023/08/03 06:07:21;;;;;;;5.25;1.00;;;;;;;16.77;100.00;98345.66;12208087;19;20003;-82
2023/08/03 06:11:23;;;;;;;5.80;1.17;;;;;;;16.98;100.00;98328.31;12179513;19;20465;-79
2023/08/03 06:15:29;;;;;;;5.80;1.10;;;;;;;17.04;100.00;98357.59;12189036;19;20099;-81
2023/08/03 06:19:31;;;;;;;5.63;0.93;;;;;;;17.21;100.00;98348.44;12189766;19;20010;-81
2023/08/03 06:23:33;;;;;;;7.07;1.07;;;;;;;17.29;100.00;98350.41;12157643;19;20002;-80
2023/08/03 06:27:35;;;;;;;5.73;1.00;;;;;;;17.35;100.00;98364.97;12190155;19;20024;-79
2023/08/03 06:31:41;;;;;;;6.85;1.23;;;;;;;17.41;100.00;98370.03;12205664;19;20015;-81
2023/08/03 06:35:45;;;;;;;7.10;1.25;;;;;;;17.37;100.00;98371.00;12179716;19;20007;-82
2023/08/03 06:39:50;;;;;;;4.90;0.88;;;;;;;17.37;100.00;98374.63;12200682;19;20389;-80
2023/08/03 06:43:54;;;;;;;6.25;1.20;;;;;;;17.37;100.00;98368.22;12200578;19;20007;-81
2023/08/03 06:47:57;;;;;;;7.47;1.48;;;;;;;17.49;100.00;98372.00;12177601;19;20005;-83
2023/08/03 06:51:58;;;;;;;5.07;0.98;;;;;;;17.66;100.00;98385.03;12206392;19;20023;-82
2023/08/03 06:56:00;;;;;;;3.70;0.90;;;;;;;17.71;100.00;98384.06;12199862;19;20114;-81
2023/08/03 07:00:02;;;;;;;5.70;1.30;;;;;;;17.87;100.00;98382.38;12178417;19;20045;-81
2023/08/03 07:04:05;;;;;;;3.85;1.20;;;;;;;17.96;100.00;98385.16;12200633;19;20657;-80
2023/08/03 07:08:08;;;;;;;4.57;0.87;;;;;;;18.16;100.00;98384.41;12205462;19;20403;-81
2023/08/03 07:12:13;;;;;;;6.28;1.17;;;;;;;18.36;100.00;98382.03;12201002;19;21157;-82
2023/08/03 07:16:15;;;;;;;5.30;1.08;;;;;;;18.70;100.00;98389.38;12224652;19;20010;-80
2023/08/03 07:20:18;;;;;;;11.13;1.00;;;;;;;18.75;100.00;98405.16;12211905;19;20018;-81
2023/08/03 07:24:20;;;;;;;5.27;1.10;;;;;;;18.64;100.00;98404.69;12218874;19;20003;-80
2023/08/03 07:28:22;;;;;;;4.07;1.10;;;;;;;18.40;100.00;98405.31;12188331;19;20307;-80
2023/08/03 07:32:24;;;;;;;5.85;2.20;;;;;;;18.23;100.00;98422.91;12197668;19;20789;-83
2023/08/03 07:36:26;;;;;;;6.00;1.23;;;;;;;18.10;100.00;98424.78;12178483;19;20034;-82
2023/08/03 07:40:28;;;;;;;9.65;1.40;;;;;;;17.85;100.00;98425.69;12197964;19;20367;-82
2023/08/03 07:44:30;;;;;;;7.30;1.27;;;;;;;17.79;100.00;98422.25;12197215;19;20394;-81
2023/08/03 07:48:34;;;;;;;5.22;1.85;;;;;;;17.65;100.00;98414.06;12176377;19;20033;-81
2023/08/03 07:52:36;;;;;;;6.53;1.08;;;;;;;17.70;100.00;98413.88;12198151;19;20015;-81
2023/08/03 07:56:38;;;;;;;5.93;1.30;;;;;;;17.80;100.00;98426.69;12208754;19;20401;-82
2023/08/03 08:00:40;;;;;;;5.00;1.50;;;;;;;17.88;100.00;98427.81;12187037;19;20014;-81
2023/08/03 08:04:42;;;;;;;4.50;1.10;;;;;;;17.90;100.00;98437.47;12207095;19;20007;-80
2023/08/03 08:08:45;;;;;;;4.35;1.15;;;;;;;17.83;100.00;98425.19;12214323;19;20034;-81
2023/08/03 08:12:46;;;;;;;6.95;1.05;;;;;;;17.85;100.00;98440.44;12189091;19;20010;-80
2023/08/03 08:16:50;;;;;;;5.18;1.08;;;;;;;17.83;100.00;98451.09;12207130;19;20576;-80
2023/08/03 08:21:11;;;;;;;5.72;1.00;;;;;;;17.94;100.00;98457.16;12184895;19;20078;-84
2023/08/03 08:25:13;;;;;;;4.93;1.80;;;;;;;17.79;100.00;98472.41;12206756;19;20082;-81
2023/08/03 08:29:15;;;;;;;5.73;0.90;;;;;;;17.59;100.00;98485.00;12202757;19;20033;-84
2023/08/03 08:33:18;;;;;;;5.90;1.00;;;;;;;17.62;100.00;98503.84;12187741;19;20014;-81
2023/08/03 08:37:21;;;;;;;7.00;1.85;;;;;;;17.53;100.00;98489.13;12208452;19;20779;-81
2023/08/03 08:41:22;;;;;;;5.97;1.75;;;;;;;17.42;100.00;98505.31;12204039;19;20015;-81
2023/08/03 08:45:24;;;;;;;4.43;1.52;;;;;;;17.45;100.00;98510.22;12185573;19;20056;-82
2023/08/03 08:49:26;;;;;;;3.40;1.50;;;;;;;17.40;100.00;98512.34;12207762;19;20010;-80
2023/08/03 08:53:31;;;;;;;8.52;1.42;;;;;;;17.30;100.00;98505.97;12213917;19;20020;-82
2023/08/03 08:57:54;;;;;;;4.95;0.98;;;;;;;17.33;100.00;98509.25;12186038;19;20034;-82
2023/08/03 09:02:01;;;;;;;4.60;1.23;;;;;;;17.38;100.00;98498.78;12204352;19;20044;-81
2023/08/03 09:06:02;;;;;;;3.80;1.15;;;;;;;17.50;100.00;98506.47;12182036;19;20010;-81
2023/08/03 09:10:08;;;;;;;4.10;1.15;;;;;;;17.52;100.00;98516.16;12201498;19;20014;-82
2023/08/03 09:14:14;;;;;;;4.53;1.23;;;;;;;17.50;100.00;98518.44;12208060;19;20771;-80
2023/08/03 09:18:16;;;;;;;2.72;0.70;;;;;;;17.59;100.00;98532.38;12178702;19;20054;-80
2023/08/03 09:22:19;;;;;;;4.63;1.47;;;;;;;17.53;100.00;98533.69;12202583;19;20002;-81
2023/08/03 09:26:24;;;;;;;6.22;1.00;;;;;;;17.57;100.00;98528.25;12209769;19;20031;-80
2023/08/03 09:30:29;;;;;;;4.20;0.90;;;;;;;17.59;100.00;98539.91;12172492;19;20011;-81
2023/08/03 09:34:39;;;;;;;3.72;0.90;;;;;;;17.99;100.00;98534.97;12206600;19;20018;-82
2023/08/03 09:38:44;;;;;;;3.88;0.80;;;;;;;18.34;100.00;98534.94;12203061;19;20508;-80
2023/08/03 09:42:47;;;;;;;3.72;1.30;;;;;;;18.36;100.00;98541.81;12181648;19;20084;-81
2023/08/03 09:46:49;;;;;;;3.97;1.15;;;;;;;18.13;100.00;98555.13;12205139;19;20564;-81
2023/08/03 09:50:56;;;;;;;2.50;0.83;;;;;;;18.01;100.00;98566.13;12200174;19;20127;-82
2023/08/03 09:55:06;;;;;;;3.70;1.10;;;;;;;18.12;100.00;98567.44;12198676;19;20026;-80
2023/08/03 09:59:12;;;;;;;5.30;0.75;;;;;;;18.52;100.00;98563.59;12202575;19;20018;-80
2023/08/03 10:03:15;;;;;;;6.90;1.15;;;;;;;18.89;100.00;98567.59;12182300;19;20035;-80
2023/08/03 10:07:21;;;;;;;4.57;0.90;;;;;;;19.17;100.00;98572.69;12199992;19;20010;-81
2023/08/03 10:11:28;;;;;;;2.45;0.70;;;;;;;19.55;100.00;98570.66;12205922;19;20738;-83
2023/08/03 10:15:31;;;;;;;4.00;0.60;;;;;;;19.67;100.00;98571.91;12179671;19;20014;-81
2023/08/03 10:19:39;;;;;;;3.85;0.82;;;;;;;19.55;100.00;98567.84;12203071;19;20041;-83
2023/08/03 10:24:07;;;;;;;3.20;0.80;;;;;;;19.29;100.00;98583.97;12202658;19;20338;-81
2023/08/03 10:28:14;;;;;;;3.15;0.77;;;;;;;18.83;100.00;98578.13;12175870;19;20075;-80
2023/08/03 10:32:22;;;;;;;2.75;0.70;;;;;;;18.54;100.00;98587.22;12198358;19;20011;-81
2023/08/03 10:36:27;;;;;;;3.03;0.90;;;;;;;18.02;100.00;98601.22;12181362;19;20006;-83
2023/08/03 10:40:30;;;;;;;3.42;0.95;;;;;;;17.81;100.00;98601.06;12205656;19;20015;-84
2023/08/03 10:44:32;;;;;;;2.47;0.95;;;;;;;17.97;100.00;98607.78;12223138;19;20014;-82
2023/08/03 10:48:37;;;;;;;3.15;0.80;;;;;;;18.16;100.00;98610.22;12208165;19;20015;-84
2023/08/03 10:52:39;;;;;;;3.25;0.85;;;;;;;18.39;100.00;98621.22;12237559;19;20038;-83
2023/08/03 10:57:08;;;;;;;5.68;0.85;;;;;;;18.40;100.00;98618.06;12239124;19;20049;-83
2023/08/03 11:01:22;;;;;;;2.85;0.70;;;;;;;18.31;100.00;98622.03;12204289;19;20014;-83
2023/08/03 11:05:24;;;;;;;3.78;0.88;;;;;;;18.67;100.00;98611.28;12214619;19;20149;-83
2023/08/03 11:09:26;;;;;;;2.33;0.90;;;;;;;18.83;100.00;98619.16;12186053;19;20014;-83
2023/08/03 11:13:28;;;;;;;2.92;0.70;;;;;;;19.03;100.00;98626.78;12199984;19;20007;-83
2023/08/03 11:17:31;;;;;;;5.70;0.70;;;;;;;19.22;100.00;98633.94;12207557;19;20007;-85
2023/08/03 11:21:36;;;;;;;2.03;0.60;;;;;;;19.71;100.00;98642.72;12189770;19;20010;-85
2023/08/03 11:25:40;;;;;;;2.75;0.73;;;;;;;19.39;100.00;98663.75;12204089;19;20007;-84
2023/08/03 11:29:41;;;;;;;1.95;1.45;;;;;;;19.12;100.00;98652.69;12208226;19;20021;-84
2023/08/03 11:33:51;;;;;;;5.10;0.80;;;;;;;18.92;100.00;98653.44;12190284;19;20027;-84
2023/08/03 11:37:53;;;;;;;1.05;0.65;;;;;;;19.00;100.00;98643.38;12218969;19;20121;-85
2023/08/03 11:41:56;;;;;;;2.03;0.63;;;;;;;19.38;100.00;98648.97;12195710;19;20011;-85
2023/08/03 11:46:30;;;;;;;1.40;0.52;;;;;;;19.40;100.00;98648.66;12210422;19;20150;-85
2023/08/03 11:50:32;;;;;;;2.15;0.60;;;;;;;19.43;100.00;98647.97;12223222;19;20368;-83
2023/08/03 11:54:48;;;;;;;1.35;0.70;;;;;;;19.63;100.00;98647.19;12194979;19;20042;-86
2023/08/03 11:58:53;;;;;;;1.90;0.55;;;;;;;19.86;100.00;98644.13;12214170;19;20018;-85
2023/08/03 12:02:55;;;;;;;0.93;0.40;;;;;;;20.08;100.00;98651.34;12189286;19;20015;-83
2023/08/03 12:06:57;;;;;;;2.13;0.60;;;;;;;19.83;100.00;98654.00;12206467;19;20262;-84
2023/08/03 12:11:19;;;;;;;4.15;0.70;;;;;;;19.60;100.00;98675.78;12215384;19;20019;-81
2023/08/03 12:15:25;;;;;;;2.65;0.68;;;;;;;19.25;100.00;98675.97;12181916;19;20014;-82
2023/08/03 12:19:32;;;;;;;1.33;0.75;;;;;;;18.87;100.00;98667.56;12205408;19;20494;-81
2023/08/03 12:23:34;;;;;;;1.48;0.60;;;;;;;18.92;100.00;98681.38;12208854;19;20019;-82
2023/08/03 12:27:36;;;;;;;1.93;0.63;;;;;;;19.06;100.00;98675.56;12186308;19;20014;-82
2023/08/03 12:31:39;;;;;;;2.50;1.10;;;;;;;18.94;100.00;98681.81;12203034;19;20014;-82
2023/08/03 12:35:41;;;;;;;1.23;0.68;;;;;;;18.68;100.00;98671.53;12206473;19;20349;-82
2023/08/03 12:39:43;;;;;;;4.55;0.77;;;;;;;19.19;100.00;98663.38;12183061;19;20067;-82
2023/08/03 12:43:46;;;;;;;1.20;0.90;;;;;;;19.46;100.00;98673.25;12203805;19;21170;-83
2023/08/03 12:47:48;;;;;;;2.50;0.60;;;;;;;20.37;100.00;98664.41;12214510;19;20010;-85
2023/08/03 12:51:54;;;;;;;2.90;0.98;;;;;;;21.56;100.00;98664.63;12192887;19;20014;-81
2023/08/03 12:55:57;;;;;;;0.70;0.60;;;;;;;21.89;100.00;98664.47;12211026;19;19999;-84
2023/08/03 12:59:59;;;;;;;0.57;0.50;;;;;;;21.44;100.00;98673.84;12187321;19;20010;-82
2023/08/03 13:04:01;;;;;;;0.57;0.40;;;;;;;21.67;100.00;98677.00;12205292;19;20033;-83
2023/08/03 13:08:03;;;;;;;3.67;0.60;;;;;;;22.02;100.00;98687.72;12214331;19;20014;-82
2023/08/03 13:12:05;;;;;;;0.88;0.47;;;;;;;22.16;100.00;98709.75;12185007;19;20009;-81
2023/08/03 13:16:07;;;;;;;2.30;0.53;;;;;;;23.33;100.00;98717.19;12225175;19;20029;-82
2023/08/03 13:20:09;;;;;;;0.50;0.33;;;;;;;24.40;87.90;98708.53;12218699;19;20252;-81
2023/08/03 13:24:11;;;;;;;;;;;;;;;24.86;87.70;98716.34;12181633;19;20026;-81
2023/08/03 13:28:16;;;;;;;1.27;0.50;;;;;;;24.25;88.81;98729.09;12209247;19;21116;-83
2023/08/03 13:32:18;;;;;;;1.70;0.50;;;;;;;22.88;91.21;98735.22;12197421;19;20469;-80
2023/08/03 13:36:19;;;;;;;0.63;0.40;;;;;;;22.09;93.38;98730.00;12182712;19;20010;-81
2023/08/03 13:40:21;;;;;;;1.88;0.65;;;;;;;21.65;98.38;98721.38;12201851;19;20082;-82
2023/08/03 13:44:23;;;;;;;3.57;0.50;;;;;;;22.73;100.00;98722.75;12211022;19;20383;-83
2023/08/03 13:48:26;;;;;;;1.10;0.40;;;;;;;23.77;86.34;98732.00;12185900;19;20074;-80
2023/08/03 13:52:28;;;;;;;0.93;0.40;;;;;;;24.43;77.06;98752.88;12200887;19;20011;-83
2023/08/03 13:56:30;;;;;;;0.80;0.45;;;;;;;25.10;74.88;98744.19;12208898;19;20564;-82
2023/08/03 14:00:34;;;;;;;0.63;0.30;;;;;;;26.48;67.36;98729.19;12184171;19;20014;-80
2023/08/03 14:04:41;;;;;;;0.50;0.30;;;;;;;26.25;68.93;98732.91;12210773;19;20020;-79
2023/08/03 14:08:44;;;;;;;1.42;0.50;;;;;;;25.28;72.40;98740.91;12201640;19;20007;-80
2023/08/03 14:12:48;;;;;;;0.60;0.50;;;;;;;24.47;71.94;98762.19;12183832;19;20080;-81
2023/08/03 14:16:53;;;;;;;0.80;0.40;;;;;;;23.34;79.22;98766.59;12196689;19;20014;-80
2023/08/03 14:20:56;;;;;;;8.30;0.70;;;;;;;22.36;83.44;98772.56;12181180;19;20011;-81
2023/08/03 14:25:00;;;;;;;0.52;0.30;;;;;;;22.15;87.18;98776.28;12200309;19;20058;-80
2023/08/03 14:29:05;;;;;;;2.53;0.60;;;;;;;21.85;89.80;98768.13;12202631;19;20042;-81
2023/08/03 14:33:07;;;;;;;1.03;0.50;;;;;;;21.39;92.54;98773.00;12175835;19;20014;-80
2023/08/03 14:37:08;;;;;;;6.65;0.98;;;;;;;21.25;94.88;98777.25;12196225;19;20094;-82
2023/08/03 14:41:14;;;;;;;1.20;0.70;;;;;;;21.49;91.93;98768.09;12199115;19;20007;-79
2023/08/03 14:45:17;;;;;;;3.22;0.85;;;;;;;21.53;94.84;98767.03;12183613;19;20015;-80
2023/08/03 14:49:18;;;;;;;3.38;0.93;;;;;;;21.74;93.69;98754.91;12200638;19;20503;-81
2023/08/03 14:53:21;;;;;;;2.78;0.80;;;;;;;21.45;93.65;98765.19;12200835;19;20011;-81
2023/08/03 14:57:22;;;;;;;2.33;0.70;;;;;;;21.23;96.21;98763.56;12191018;19;20022;-82
2023/08/03 15:01:27;;;;;;;2.00;0.80;;;;;;;21.02;96.53;98776.81;12203817;19;20011;-81
2023/08/03 15:05:29;;;;;;;6.13;1.67;;;;;;;20.88;98.67;98780.75;12210418;19;20255;-81
2023/08/03 15:09:31;;;;;;;3.65;0.90;;;;;;;21.21;98.79;98771.53;12186102;19;20022;-81
2023/08/03 15:13:33;;;;;;;2.37;0.80;;;;;;;21.49;93.46;98784.91;12204982;19;20068;-81
2023/08/03 15:17:35;;;;;;;4.13;0.97;;;;;;;21.55;91.21;98792.75;12201583;19;20018;-81
2023/08/03 15:21:39;;;;;;;3.25;0.60;;;;;;;21.48;89.94;98778.50;12176136;19;20015;-80
2023/08/03 15:25:42;;;;;;;2.67;0.90;;;;;;;21.30;92.21;98794.66;12195026;19;20007;-81
2023/08/03 15:29:48;;;;;;;4.03;0.98;;;;;;;20.97;92.53;98788.22;12195758;19;20370;-82
2023/08/03 15:33:52;;;;;;;1.73;1.20;;;;;;;20.99;90.91;98794.31;12168647;19;20011;-82
2023/08/03 15:37:55;;;;;;;3.30;0.82;;;;;;;20.99;92.37;98791.50;12195498;19;20015;-83
2023/08/03 15:41:59;;;;;;;2.33;0.80;;;;;;;20.82;92.07;98815.72;12175854;19;20011;-83
2023/08/03 15:46:07;;;;;;;1.67;0.70;;;;;;;20.94;91.48;98798.16;12192596;19;20085;-81
2023/08/03 15:50:13;;;;;;;1.65;0.65;;;;;;;21.65;89.24;98811.09;12197717;19;20007;-82
2023/08/03 15:54:23;;;;;;;2.03;0.75;;;;;;;22.58;82.44;98797.31;12178242;19;20469;-82
2023/08/03 15:58:31;;;;;;;4.68;0.70;;;;;;;22.36;79.61;98797.81;12192524;19;20010;-82
2023/08/03 16:02:33;;;;;;;2.83;0.60;;;;;;;22.26;83.17;98788.72;12199146;19;20730;-81
2023/08/03 16:06:36;;;;;;;1.25;0.50;;;;;;;22.19;84.38;98798.88;12177461;19;20014;-83
2023/08/03 16:10:39;;;;;;;2.37;0.80;;;;;;;22.03;83.09;98791.13;12196164;19;20074;-80
2023/08/03 16:14:43;;;;;;;0.95;0.68;;;;;;;21.77;82.24;98805.53;12195245;19;20098;-83
2023/08/03 16:18:46;;;;;;;2.88;1.05;;;;;;;21.58;81.43;98808.88;12186960;19;20010;-82
2023/08/03 16:22:49;;;;;;;3.28;0.80;;;;;;;21.36;84.35;98801.72;12206393;19;20031;-84
2023/08/03 16:26:53;;;;;;;2.38;0.82;;;;;;;21.14;87.53;98796.44;12188731;19;20014;-82
2023/08/03 16:30:56;;;;;;;1.85;0.90;;;;;;;21.02;90.47;98797.22;12207336;19;20002;-83
2023/08/03 16:34:59;;;;;;;;;;;;;;;20.99;91.34;98808.31;12204576;19;20011;-83
2023/08/03 16:39:05;;;;;;;4.70;0.98;;;;;;;21.21;90.57;98810.75;12185490;19;19923;-83
2023/08/03 16:43:07;;;;;;;;;;;;;;;21.17;90.42;98816.19;12208088;19;20334;-82
2023/08/03 16:47:09;;;;;;;3.10;0.88;;;;;;;21.00;91.77;98826.72;12205140;19;19919;-81
2023/08/03 16:51:11;;;;;;;2.40;0.80;;;;;;;21.02;92.92;98818.81;12191336;19;20019;-83
2023/08/03 16:55:13;;;;;;;4.30;1.00;;;;;;;20.93;93.63;98822.50;12208316;19;20002;-82
2023/08/03 16:59:14;;;;;;;3.20;1.48;;;;;;;20.68;95.93;98821.56;12220241;19;20009;-83
2023/08/03 17:03:21;;;;;;;3.77;1.03;;;;;;;20.84;94.95;98832.16;12214886;19;20102;-80
2023/08/03 17:07:23;;;;;;;2.75;0.82;;;;;;;20.91;95.04;98818.41;12246745;19;20011;-82
2023/08/03 17:11:25;;;;;;;2.83;0.80;;;;;;;21.02;93.40;98816.03;12253260;19;20014;-82
2023/08/03 17:15:26;;;;;;;4.97;1.17;;;;;;;20.89;92.73;98827.16;12198636;19;20002;-81
2023/08/03 17:19:29;;;;;;;4.23;1.00;;;;;;;20.73;93.34;98819.72;12217089;19;20010;-81
2023/08/03 17:23:30;;;;;;;3.47;0.93;;;;;;;20.63;94.17;98824.56;12216943;19;20010;-82
2023/08/03 17:27:34;;;;;;;2.40;0.95;;;;;;;20.41;94.41;98834.09;12188443;19;20038;-81
2023/08/03 17:31:38;;;;;;;1.98;0.77;;;;;;;20.49;95.09;98835.16;12211632;19;20010;-81
2023/08/03 17:35:40;;;;;;;2.45;0.90;;;;;;;20.50;95.30;98864.81;12208373;19;20025;-80
2023/08/03 17:39:41;;;;;;;3.50;0.93;;;;;;;20.46;95.43;98866.63;12186717;19;20010;-81
2023/08/03 17:43:43;;;;;;;1.70;0.67;;;;;;;20.42;96.03;98860.91;12209748;19;20006;-82
2023/08/03 17:47:45;;;;;;;3.38;0.90;;;;;;;20.38;96.89;98861.94;12211359;19;20011;-81
2023/08/03 17:51:47;;;;;;;4.38;1.02;;;;;;;20.36;96.87;98867.84;12185420;19;20078;-81
2023/08/03 17:55:50;;;;;;;1.80;0.80;;;;;;;20.37;95.95;98869.47;12208857;19;20049;-81
2023/08/03 17:59:52;;;;;;;2.30;0.85;;;;;;;20.36;97.36;98861.44;12201667;19;20364;-82
2023/08/03 18:03:54;;;;;;;3.00;1.43;;;;;;;20.33;97.33;98870.50;12202294;19;20469;-80
2023/08/03 18:07:56;;;;;;;2.33;0.85;;;;;;;20.29;96.34;98881.56;12204117;19;20798;-81
2023/08/03 18:11:58;;;;;;;4.13;0.80;;;;;;;20.21;96.50;98883.22;12188289;19;20482;-83
2023/08/03 18:16:04;;;;;;;1.70;0.77;;;;;;;20.12;96.80;98898.41;12212028;19;20359;-82
2023/08/03 18:20:07;;;;;;;4.18;0.90;;;;;;;20.03;96.47;98896.47;12217459;19;20038;-81
2023/08/03 18:24:08;;;;;;;1.70;0.75;;;;;;;19.95;97.71;98905.69;12192086;19;20010;-82
2023/08/03 18:28:10;;;;;;;1.93;0.63;;;;;;;19.85;98.96;98905.25;12210908;19;20017;-82
2023/08/03 18:32:12;;;;;;;2.25;0.90;;;;;;;19.79;100.00;98910.22;12211842;19;20018;-82
2023/08/03 18:36:18;;;;;;;5.07;1.10;;;;;;;19.75;99.68;98912.00;12187652;19;20022;-81
2023/08/03 18:40:20;;;;;;;4.13;1.05;;;;;;;19.66;100.00;98917.66;12204320;19;20355;-82
2023/08/03 18:44:21;;;;;;;2.00;1.10;;;;;;;19.59;100.00;98914.47;12210389;19;20014;-81
2023/08/03 18:48:23;;;;;;;4.30;1.17;;;;;;;19.55;100.00;98921.91;12187271;19;20014;-82